^^
MeteoGriva-Weather Station Historical Data
 
Daily Summary for October 31, 2020 Units:  Metric    English   Both
Daily Weekly Monthly Yearly Custom
  Current: High: Low: Average:
Temperature: 20.2 °C 20.3 °C 11.2 °C 14.6 °C
Dew Point: 12.9 °C 12.9 °C 7 °C 9.2 °C
Humidity: 63% 78% 60.5% 71%
Wind Speed: 6.4km/h 7.5km/h 0km/h 1.1km/h
Wind Gust: 16.3km/h 20.1km/h - -
WindSouth - - SSW
Pressure: 1015.9 hPa 1020.7 hPa 1015.9 hPa -
Precipitation: 0.0 mm      
Historical Graphs
 
 
Tabular Data for October 31, 2020
Time Temperature Dew Point Pressure Wind Wind Speed Wind Gust Humidity Rainfall Rate (Hourly) solar
00:04 11.3 °C 7.2 °C 1020.3 hPa Calm     76% 0.0 mm 0 W/m2
00:09 11.2 °C 7.3 °C 1020.3 hPa Calm     77.1% 0.0 mm 0 W/m2
00:14 11.2 °C 7.1 °C 1020.3 hPa Calm     75.8% 0.0 mm 0 W/m2
00:19 11.4 °C 7.1 °C 1020.3 hPa Calm     74.7% 0.0 mm 0 W/m2
00:24 11.6 °C 7.5 °C 1020.3 hPa NNW 0.2 km/h 4 km/h 76.1% 0.0 mm 0 W/m2
00:29 11.5 °C 7.7 °C 1020.7 hPa Calm     77.1% 0.0 mm 0 W/m2
00:34 11.5 °C 7.4 °C 1020.3 hPa Calm   7.9 km/h 75.8% 0.0 mm 0 W/m2
00:39 11.4 °C 7.4 °C 1020.3 hPa NNE 0.9 km/h 12.2 km/h 76.3% 0.0 mm 0 W/m2
00:44 11.3 °C 7.6 °C 1020.3 hPa Calm     78% 0.0 mm 0 W/m2
00:49 11.2 °C 7.4 °C 1020.3 hPa NNE 0.3 km/h 4 km/h 77.3% 0.0 mm 0 W/m2
00:54 11.3 °C 7 °C 1020.3 hPa NNE 0.2 km/h 4 km/h 75.2% 0.0 mm 0 W/m2
00:59 11.5 °C 7.2 °C 1020.3 hPa Calm   4 km/h 74.9% 0.0 mm 0 W/m2
01:04 11.9 °C 7.4 °C 1020.3 hPa NE 1.4 km/h 7.9 km/h 74% 0.0 mm 0 W/m2
01:09 12 °C 7.3 °C 1020.3 hPa North 1.1 km/h 7.9 km/h 73% 0.0 mm 0 W/m2
01:14 12 °C 7.5 °C 1020.3 hPa NW 3.6 km/h 16.3 km/h 73.7% 0.0 mm 0 W/m2
01:19 12.4 °C 7.6 °C 1020.0 hPa NNW 4.8 km/h 20.1 km/h 72.8% 0.0 mm 0 W/m2
01:24 12.7 °C 7.8 °C 1020.3 hPa NNW 7.5 km/h 16.3 km/h 72% 0.0 mm 0 W/m2
01:29 12.7 °C 7.8 °C 1020.0 hPa North 2 km/h 12.2 km/h 72% 0.0 mm 0 W/m2
01:34 12.8 °C 7.9 °C 1020.3 hPa NNW 3 km/h 7.9 km/h 72% 0.0 mm 0 W/m2
01:39 12.7 °C 8 °C 1020.0 hPa NNW 1.4 km/h 7.9 km/h 72.9% 0.0 mm 0 W/m2
01:44 12.5 °C 8.2 °C 1020.3 hPa Calm     74.8% 0.0 mm 0 W/m2
01:49 12.4 °C 8.3 °C 1020.0 hPa Calm     76% 0.0 mm 0 W/m2
01:54 12.2 °C 8.3 °C 1020.0 hPa Calm     76.9% 0.0 mm 0 W/m2
01:59 12 °C 7.9 °C 1020.3 hPa Calm     76% 0.0 mm 0 W/m2
02:04 11.7 °C 7.6 °C 1020.3 hPa Calm     75.9% 0.0 mm 0 W/m2
02:09 11.7 °C 7.6 °C 1020.3 hPa Calm     76.2% 0.0 mm 0 W/m2
02:14 11.7 °C 7.7 °C 1020.3 hPa Calm     76.3% 0.0 mm 0 W/m2
02:19 11.8 °C 7.6 °C 1020.3 hPa West 1.1 km/h 7.9 km/h 75.7% 0.0 mm 0 W/m2
02:24 12 °C 7.5 °C 1020.3 hPa Calm   7.9 km/h 74.1% 0.0 mm 0 W/m2
02:29 12 °C 7.7 °C 1020.3 hPa Calm     75% 0.0 mm 0 W/m2
02:34 12 °C 7.6 °C 1020.3 hPa Calm   4 km/h 74.6% 0.0 mm 0 W/m2
02:39 12 °C 7.6 °C 1020.3 hPa Calm   4 km/h 74.8% 0.0 mm 0 W/m2
02:44 11.7 °C 7.6 °C 1020.3 hPa Calm   4 km/h 76% 0.0 mm 0 W/m2
02:49 11.8 °C 7.6 °C 1020.3 hPa Calm   4 km/h 75.5% 0.0 mm 0 W/m2
02:54 11.8 °C 7.5 °C 1020.0 hPa NW 0.5 km/h 12.2 km/h 75% 0.0 mm 0 W/m2
02:59 12 °C 7.5 °C 1020.0 hPa NNW 1.1 km/h 7.9 km/h 74% 0.0 mm 0 W/m2
03:04 12.5 °C 8 °C 1019.6 hPa NNW 3.8 km/h 12.2 km/h 73.8% 0.0 mm 0 W/m2
03:09 12.5 °C 7.9 °C 1019.6 hPa North 5.3 km/h 12.2 km/h 73.4% 0.0 mm 0 W/m2
03:14 12.5 °C 7.8 °C 1019.6 hPa NNW 5 km/h 16.3 km/h 73.2% 0.0 mm 0 W/m2
03:19 12.7 °C 7.9 °C 1019.6 hPa NW 4.6 km/h 12.2 km/h 73% 0.0 mm 0 W/m2
03:24 12.8 °C 8.1 °C 1019.6 hPa NNW 3.6 km/h 20.1 km/h 73% 0.0 mm 0 W/m2
03:29 12.8 °C 8.1 °C 1019.6 hPa NW 2 km/h 12.2 km/h 73.1% 0.0 mm 0 W/m2
03:34 12.8 °C 8.2 °C 1019.6 hPa NW 5.4 km/h 20.1 km/h 73.3% 0.0 mm 0 W/m2
03:39 12.8 °C 8.1 °C 1019.6 hPa NNW 2.8 km/h 16.3 km/h 73% 0.0 mm 0 W/m2
03:44 12.8 °C 8 °C 1019.3 hPa NNW 2.5 km/h 20.1 km/h 72.6% 0.0 mm 0 W/m2
03:49 12.8 °C 7.9 °C 1019.6 hPa NW 7.2 km/h 20.1 km/h 72.2% 0.0 mm 0 W/m2
03:54 12.9 °C 7.9 °C 1019.6 hPa NNW 5.9 km/h 20.1 km/h 71.4% 0.0 mm 0 W/m2
03:59 12.9 °C 8 °C 1019.6 hPa Calm   7.9 km/h 72.3% 0.0 mm 0 W/m2
04:04 12.6 °C 8.1 °C 1019.6 hPa Calm     74.1% 0.0 mm 0 W/m2
04:09 12.5 °C 8.4 °C 1019.6 hPa Calm     75.6% 0.0 mm 0 W/m2
04:14 12.4 °C 8.3 °C 1019.6 hPa NNW 1.5 km/h 12.2 km/h 75.9% 0.0 mm 0 W/m2
04:19 12.3 °C 7.6 °C 1019.6 hPa NNW 2.5 km/h 12.2 km/h 72.6% 0.0 mm 0 W/m2
04:24 12.7 °C 8.1 °C 1019.6 hPa North 1.6 km/h 7.9 km/h 73.4% 0.0 mm 0 W/m2
04:29 12.7 °C 8.4 °C 1019.6 hPa Calm   4 km/h 75.1% 0.0 mm 0 W/m2
04:34 12.5 °C 8.4 °C 1019.3 hPa Calm   4 km/h 75.8% 0.0 mm 0 W/m2
04:39 12.4 °C 8.2 °C 1019.3 hPa Calm     75.6% 0.0 mm 0 W/m2
04:44 11.8 °C 7.8 °C 1019.6 hPa Calm     76.3% 0.0 mm 0 W/m2
04:49 11.8 °C 7.8 °C 1019.6 hPa Calm     76.2% 0.0 mm 0 W/m2
04:54 11.8 °C 7.7 °C 1019.6 hPa Calm     76% 0.0 mm 0 W/m2
04:59 11.8 °C 7.9 °C 1019.6 hPa Calm     76.8% 0.0 mm 0 W/m2
05:04 11.7 °C 7.7 °C 1019.6 hPa Calm     76.7% 0.0 mm 0 W/m2
05:09 11.7 °C 7.7 °C 1019.6 hPa Calm     76.7% 0.0 mm 0 W/m2
05:14 11.7 °C 7.6 °C 1019.6 hPa NNW 0.1 km/h 4 km/h 76% 0.0 mm 0 W/m2
05:19 11.7 °C 7.8 °C 1019.6 hPa Calm     77.2% 0.0 mm 0 W/m2
05:24 11.5 °C 7.6 °C 1019.6 hPa Calm     77% 0.0 mm 0 W/m2
05:29 11.5 °C 7.5 °C 1019.3 hPa Calm     76.7% 0.0 mm 0 W/m2
05:34 11.5 °C 7.4 °C 1019.3 hPa Calm     76% 0.0 mm 0 W/m2
05:39 11.5 °C 7.4 °C 1019.3 hPa Calm     76% 0.0 mm 0 W/m2
05:44 11.6 °C 7.6 °C 1019.3 hPa Calm     76.3% 0.0 mm 0 W/m2
05:49 11.6 °C 7.3 °C 1019.3 hPa Calm     74.9% 0.0 mm 0 W/m2
05:54 11.7 °C 7.4 °C 1019.3 hPa Calm     75.3% 0.0 mm 0 W/m2
05:59 11.7 °C 7.5 °C 1019.3 hPa Calm     75.3% 0.0 mm 0 W/m2
06:04 11.9 °C 7.6 °C 1019.3 hPa Calm     75% 0.0 mm 0 W/m2
06:09 11.9 °C 7.6 °C 1019.3 hPa Calm     75% 0.0 mm 0 W/m2
06:14 11.9 °C 7.5 °C 1019.3 hPa Calm     74.4% 0.0 mm 0 W/m2
06:19 11.9 °C 7.5 °C 1019.3 hPa Calm     74.6% 0.0 mm 0 W/m2
06:24 11.9 °C 7.4 °C 1019.3 hPa Calm     74.2% 0.0 mm 0 W/m2
06:29 11.9 °C 7.4 °C 1019.3 hPa Calm     74% 0.0 mm 0 W/m2
06:34 11.9 °C 7.2 °C 1019.3 hPa Calm     72.8% 0.0 mm 0 W/m2
06:39 12 °C 7 °C 1019.3 hPa Calm     71.6% 0.0 mm 0 W/m2
06:44 12.6 °C 7.6 °C 1019.3 hPa Calm     71.6% 0.0 mm 0 W/m2
06:49 12.6 °C 8 °C 1019.3 hPa Calm     73.9% 0.0 mm 0 W/m2
06:54 12.4 °C 8.3 °C 1019.3 hPa Calm     75.9% 0.0 mm 0 W/m2
06:59 12.2 °C 8 °C 1019.3 hPa Calm     75.2% 0.0 mm 0 W/m2
07:04 11.7 °C 7.3 °C 1019.3 hPa Calm     74.9% 0.0 mm 5 W/m2
07:09 11.7 °C 7.2 °C 1019.3 hPa Calm   4 km/h 73.8% 0.0 mm 9 W/m2
07:14 11.8 °C 7 °C 1019.3 hPa Calm     72.3% 0.0 mm 16 W/m2
07:19 12 °C 7.1 °C 1019.3 hPa SW 0.3 km/h 4 km/h 72% 0.0 mm 21 W/m2
07:24 12.8 °C 7.9 °C 1019.3 hPa Calm     72% 0.0 mm 22 W/m2
07:29 12.9 °C 8 °C 1019.6 hPa Calm     72% 0.0 mm 30 W/m2
07:34 12.9 °C 7.8 °C 1019.6 hPa Calm     71.2% 0.0 mm 34 W/m2
07:39 13 °C 8.1 °C 1019.6 hPa Calm     71.8% 0.0 mm 36 W/m2
07:44 13.2 °C 8.3 °C 1019.6 hPa Calm     72% 0.0 mm 40 W/m2
07:49 13.3 °C 8.3 °C 1020.0 hPa Calm     71.3% 0.0 mm 56 W/m2
07:54 13.3 °C 8.3 °C 1020.0 hPa Calm     71.5% 0.0 mm 58 W/m2
07:59 13.5 °C 8 °C 1020.0 hPa Calm   4 km/h 69.7% 0.0 mm 67 W/m2
08:04 14.9 °C 8.8 °C 1020.0 hPa South 0.3 km/h 4 km/h 66.4% 0.0 mm 72 W/m2
08:09 15.4 °C 9.1 °C 1020.0 hPa South 0.9 km/h 7.9 km/h 66% 0.0 mm 80 W/m2
08:14 15.5 °C 8.8 °C 1020.0 hPa South 2.3 km/h 12.2 km/h 64.3% 0.0 mm 95 W/m2
08:19 15.7 °C 8.7 °C 1020.0 hPa South 1.6 km/h 7.9 km/h 63.3% 0.0 mm 100 W/m2
08:24 16.6 °C 9.5 °C 1020.0 hPa South 0.7 km/h 7.9 km/h 62.6% 0.0 mm 103 W/m2
08:29 17.1 °C 9.5 °C 1020.0 hPa South 0.9 km/h 7.9 km/h 61% 0.0 mm 105 W/m2
08:34 17.2 °C 9.6 °C 1020.0 hPa SSW 0.1 km/h 4 km/h 60.8% 0.0 mm 96 W/m2
08:39 17.2 °C 9.8 °C 1020.0 hPa Calm     62% 0.0 mm 74 W/m2
08:44 15.2 °C 9.7 °C 1020.0 hPa NNE 1.8 km/h 7.9 km/h 70% 0.0 mm 79 W/m2
08:49 14.6 °C 9.7 °C 1020.0 hPa Calm     72.4% 0.0 mm 80 W/m2
08:54 14.5 °C 9.6 °C 1019.6 hPa Calm     72.7% 0.0 mm 83 W/m2
08:59 14.5 °C 9.5 °C 1019.6 hPa SE 0.4 km/h 7.9 km/h 71.9% 0.0 mm 88 W/m2
09:04 14.6 °C 9.6 °C 1020.0 hPa ENE 0.8 km/h 12.2 km/h 72.1% 0.0 mm 95 W/m2
09:09 14.5 °C 10.2 °C 1020.0 hPa NE 1 km/h 16.3 km/h 75.2% 0.0 mm 95 W/m2
09:14 14.3 °C 10.1 °C 1019.6 hPa Calm   4 km/h 75.6% 0.0 mm 100 W/m2
09:19 14.2 °C 9.9 °C 1020.0 hPa Calm   4 km/h 75.6% 0.0 mm 93 W/m2
09:24 14 °C 9.6 °C 1019.6 hPa Calm     74.8% 0.0 mm 101 W/m2
09:29 14.1 °C 9.1 °C 1019.6 hPa South 0.2 km/h 4 km/h 72.1% 0.0 mm 95 W/m2
09:34 14.4 °C 9.1 °C 1019.6 hPa SE 0.1 km/h 4 km/h 70.6% 0.0 mm 93 W/m2
09:39 14.7 °C 8.9 °C 1020.0 hPa Calm   4 km/h 68% 0.0 mm 100 W/m2
09:44 16.2 °C 9.8 °C 1019.6 hPa Calm   4 km/h 65.7% 0.0 mm 118 W/m2
09:49 17.1 °C 10.7 °C 1019.6 hPa Calm     65.6% 0.0 mm 121 W/m2
09:54 17.1 °C 10.8 °C 1019.6 hPa SSE 0.4 km/h 7.9 km/h 66.4% 0.0 mm 133 W/m2
09:59 17.2 °C 11 °C 1019.6 hPa SE 1 km/h 7.9 km/h 67.1% 0.0 mm 128 W/m2
10:04 17.4 °C 11 °C 1019.6 hPa Calm   7.9 km/h 66.2% 0.0 mm 129 W/m2
10:09 17.5 °C 10.8 °C 1019.6 hPa SSE 0.3 km/h 4 km/h 65.1% 0.0 mm 134 W/m2
10:14 17.6 °C 10.9 °C 1019.3 hPa Calm   4 km/h 65.1% 0.0 mm 126 W/m2
10:19 17.7 °C 11 °C 1019.3 hPa East 0.2 km/h 7.9 km/h 65% 0.0 mm 144 W/m2
10:24 17.8 °C 11.6 °C 1019.6 hPa Calm   7.9 km/h 66.9% 0.0 mm 142 W/m2
10:29 18 °C 11.4 °C 1019.3 hPa East 0.3 km/h 4 km/h 65.7% 0.0 mm 147 W/m2
10:34 17.8 °C 11.9 °C 1019.6 hPa East 1.8 km/h 7.9 km/h 68.3% 0.0 mm 154 W/m2
10:39 17.7 °C 11.4 °C 1019.6 hPa SE 0.9 km/h 7.9 km/h 66.7% 0.0 mm 163 W/m2
10:44 17.6 °C 11.1 °C 1019.6 hPa SE 1.4 km/h 7.9 km/h 65.9% 0.0 mm 168 W/m2
10:49 17.5 °C 10.9 °C 1019.6 hPa SSE 1.1 km/h 12.2 km/h 65.2% 0.0 mm 163 W/m2
10:54 17.5 °C 11 °C 1019.6 hPa SSE 1.5 km/h 12.2 km/h 65.7% 0.0 mm 167 W/m2
10:59 17.4 °C 11 °C 1019.3 hPa SSE 0.4 km/h 7.9 km/h 66% 0.0 mm 178 W/m2
11:04 17.6 °C 10.9 °C 1019.6 hPa Calm   4 km/h 65% 0.0 mm 187 W/m2
11:09 17.7 °C 10.7 °C 1019.3 hPa Calm     63.7% 0.0 mm 197 W/m2
11:14 17.8 °C 10.9 °C 1019.3 hPa ESE 0.1 km/h 4 km/h 64.1% 0.0 mm 217 W/m2
11:19 17.9 °C 11.1 °C 1019.3 hPa South 0.3 km/h 4 km/h 64.4% 0.0 mm 224 W/m2
11:24 17.8 °C 11.3 °C 1019.0 hPa Calm     65.8% 0.0 mm 222 W/m2
11:29 17.7 °C 11.1 °C 1019.0 hPa SE 1.3 km/h 7.9 km/h 65.2% 0.0 mm 240 W/m2
11:34 17.7 °C 11.3 °C 1019.0 hPa SSE 1 km/h 7.9 km/h 66.1% 0.0 mm 234 W/m2
11:39 17.8 °C 11.2 °C 1019.0 hPa SSE 0.2 km/h 7.9 km/h 65.3% 0.0 mm 239 W/m2
11:44 18.2 °C 11.3 °C 1018.6 hPa Calm   4 km/h 64.4% 0.0 mm 248 W/m2
11:49 18.8 °C 11.8 °C 1018.6 hPa ENE 0.9 km/h 7.9 km/h 64.2% 0.0 mm 258 W/m2
11:54 18.7 °C 11.9 °C 1018.6 hPa Calm     64.3% 0.0 mm 269 W/m2
12:04 18.6 °C 12.1 °C 1018.3 hPa NNW 1.7 km/h 7.9 km/h 65.8% 0.0 mm 297 W/m2
12:09 18.5 °C 11.7 °C 1018.3 hPa South 5.3 km/h 12.2 km/h 64.3% 0.0 mm 309 W/m2
12:14 18.6 °C 11.8 °C 1018.0 hPa South 4.4 km/h 12.2 km/h 64.3% 0.0 mm 321 W/m2
12:19 18.7 °C 11.9 °C 1018.0 hPa South 2.5 km/h 12.2 km/h 64.4% 0.0 mm 334 W/m2
12:24 19 °C 11.8 °C 1018.0 hPa South 0.6 km/h 7.9 km/h 63.1% 0.0 mm 350 W/m2
12:29 19.3 °C 12.1 °C 1018.0 hPa SSE 1.3 km/h 7.9 km/h 63.1% 0.0 mm 364 W/m2
12:34 19.3 °C 12.4 °C 1018.0 hPa ESE 2 km/h 7.9 km/h 64.3% 0.0 mm 394 W/m2
12:39 19.3 °C 12.1 °C 1018.0 hPa SSE 2.7 km/h 12.2 km/h 63% 0.0 mm 413 W/m2
12:44 19.5 °C 12.4 °C 1017.6 hPa SSE 2.9 km/h 12.2 km/h 63.7% 0.0 mm 429 W/m2
12:49 19.8 °C 12.6 °C 1017.6 hPa SSE 3.1 km/h 12.2 km/h 62.9% 0.0 mm 410 W/m2
12:54 19.8 °C 12.6 °C 1017.3 hPa SSE 4.6 km/h 16.3 km/h 63.2% 0.0 mm 400 W/m2
12:59 19.7 °C 12.5 °C 1017.3 hPa South 3 km/h 16.3 km/h 62.9% 0.0 mm 401 W/m2
13:04 19.6 °C 12.3 °C 1017.3 hPa SSE 2.9 km/h 12.2 km/h 62.6% 0.0 mm 402 W/m2
13:14 19.5 °C 12.1 °C 1016.9 hPa SSE 0.6 km/h 7.9 km/h 62.3% 0.0 mm 419 W/m2
13:19 19.5 °C 12.1 °C 1016.9 hPa South 2.5 km/h 12.2 km/h 62.4% 0.0 mm 429 W/m2
13:24 19.8 °C 12.3 °C 1016.9 hPa SSE 2.5 km/h 12.2 km/h 62% 0.0 mm 439 W/m2
13:29 20.3 °C 12.8 °C 1016.9 hPa South 0.3 km/h 12.2 km/h 62% 0.0 mm 433 W/m2
13:34 20.3 °C 12.7 °C 1016.6 hPa SSE 3 km/h 12.2 km/h 61.7% 0.0 mm 433 W/m2
13:39 20.2 °C 12.7 °C 1016.6 hPa SSE 1.9 km/h 12.2 km/h 62.2% 0.0 mm 447 W/m2
13:44 20.2 °C 12.7 °C 1016.3 hPa SSE 6.8 km/h 12.2 km/h 62% 0.0 mm 429 W/m2
13:49 20 °C 12.5 °C 1016.3 hPa South 3.9 km/h 12.2 km/h 62% 0.0 mm 429 W/m2
13:54 20 °C 12.4 °C 1016.3 hPa SSE 1.1 km/h 16.3 km/h 61.5% 0.0 mm 420 W/m2
13:59 20.1 °C 12.5 °C 1016.3 hPa SSE 4.8 km/h 16.3 km/h 61.8% 0.0 mm 403 W/m2
14:04 20.1 °C 12.4 °C 1016.3 hPa SSE 0.2 km/h 16.3 km/h 61.3% 0.0 mm 441 W/m2
14:09 20.3 °C 12.4 °C 1015.9 hPa ESE 0.8 km/h 12.2 km/h 60.5% 0.0 mm 460 W/m2
14:14 20.3 °C 12.5 °C 1016.3 hPa South 2.8 km/h 12.2 km/h 60.9% 0.0 mm 444 W/m2
14:19 20.3 °C 12.7 °C 1015.9 hPa SSE 4.9 km/h 16.3 km/h 61.7% 0.0 mm 280 W/m2
14:24 20.2 °C 12.9 °C 1015.9 hPa South 6.4 km/h 16.3 km/h 63% 0.0 mm 415 W/m2
Juneau County Weather
Compliments of Weather Underground - 2 mb